createdAt,value
2023-07-19T00:01:00.371Z,79.10
2023-07-19T00:03:27.156Z,79.70
2023-07-19T00:05:54.625Z,80.30
2023-07-19T00:08:21.404Z,80.20
2023-07-19T00:10:48.256Z,80.10
2023-07-19T00:13:15.097Z,80.20
2023-07-19T00:15:41.835Z,80.50
2023-07-19T00:18:08.603Z,80.80
2023-07-19T00:20:35.433Z,80.90
2023-07-19T00:23:02.252Z,81.70
2023-07-19T00:25:29.123Z,81.70
2023-07-19T00:27:55.885Z,82.40
2023-07-19T00:30:22.596Z,83.30
2023-07-19T00:32:49.342Z,83.60
2023-07-19T00:35:16.506Z,83.40
2023-07-19T00:37:44.318Z,83.40
2023-07-19T00:40:11.642Z,83.00
2023-07-19T00:42:38.429Z,82.70
2023-07-19T00:45:05.501Z,82.60
2023-07-19T00:47:34.682Z,82.40
2023-07-19T00:50:01.725Z,82.50
2023-07-19T00:52:29.090Z,82.40
2023-07-19T00:54:56.189Z,82.90
2023-07-19T00:57:23.079Z,83.00
2023-07-19T00:59:49.905Z,83.90
2023-07-19T01:02:16.842Z,83.70
2023-07-19T01:04:44.329Z,83.90
2023-07-19T01:07:12.624Z,83.90
2023-07-19T01:09:39.458Z,84.50
2023-07-19T01:12:07.079Z,84.90
2023-07-19T01:14:34.329Z,85.30
2023-07-19T01:17:01.674Z,85.10
2023-07-19T01:19:28.486Z,85.20
2023-07-19T01:21:57.192Z,85.20
2023-07-19T01:24:23.964Z,85.40
2023-07-19T01:26:50.721Z,86.10
2023-07-19T01:29:17.468Z,86.40
2023-07-19T01:31:44.386Z,86.50
2023-07-19T01:34:11.235Z,87.30
2023-07-19T01:36:38.022Z,87.50
2023-07-19T01:39:04.806Z,87.00
2023-07-19T01:41:31.577Z,86.70
2023-07-19T01:43:58.273Z,86.70
2023-07-19T01:46:25.116Z,87.00
2023-07-19T01:48:51.980Z,86.90
2023-07-19T01:51:19.263Z,86.80
2023-07-19T01:53:46.321Z,86.60
2023-07-19T01:56:13.096Z,87.20
2023-07-19T01:58:39.940Z,87.10
2023-07-19T02:01:06.898Z,86.90
2023-07-19T02:03:33.900Z,86.80
2023-07-19T14:11:52.292Z,74.90
2023-07-19T14:14:19.055Z,68.80
2023-07-19T14:16:45.921Z,67.60
2023-07-19T14:19:15.729Z,68.80
2023-07-19T14:21:43.877Z,64.80
2023-07-19T14:24:10.706Z,65.90
2023-07-19T14:26:37.925Z,68.30
2023-07-19T14:29:06.003Z,67.20
2023-07-19T14:31:34.203Z,63.60
2023-07-19T14:34:01.003Z,64.50
2023-07-19T14:36:28.245Z,65.70
2023-07-19T14:38:57.163Z,64.10
2023-07-19T14:41:24.553Z,61.00
2023-07-19T14:43:51.322Z,63.70
2023-07-19T14:46:19.493Z,62.60
2023-07-19T14:48:46.409Z,64.30
2023-07-19T14:51:14.675Z,65.10
2023-07-19T14:53:42.726Z,64.10
2023-07-19T14:56:11.030Z,64.40
2023-07-19T14:58:37.978Z,66.60
2023-07-19T15:01:07.877Z,65.30
2023-07-19T15:03:34.971Z,66.10
2023-07-19T15:06:02.546Z,67.50
2023-07-19T15:08:29.322Z,67.30
2023-07-19T15:10:57.096Z,65.70
2023-07-19T15:13:24.011Z,63.60
2023-07-19T15:18:22.767Z,61.70
2023-07-19T15:20:51.385Z,60.20
2023-07-19T15:23:18.597Z,60.90
2023-07-19T15:25:46.165Z,58.20
2023-07-19T15:28:28.097Z,58.10
2023-07-19T15:30:57.902Z,56.90
2023-07-19T15:33:25.212Z,60.50
2023-07-19T15:35:52.063Z,56.90
2023-07-19T15:38:24.854Z,50.60
2023-07-19T15:40:52.870Z,49.10
2023-07-19T15:43:19.877Z,51.30
2023-07-19T15:45:46.661Z,51.60
2023-07-19T15:48:13.628Z,48.20
2023-07-19T15:50:42.150Z,43.10
2023-07-19T15:53:09.307Z,42.20
2023-07-19T15:55:36.015Z,46.10
2023-07-19T15:58:02.890Z,47.60
2023-07-19T16:00:29.715Z,45.80
2023-07-19T16:02:56.698Z,42.20
2023-07-19T16:05:25.945Z,43.90
2023-07-19T16:07:53.341Z,45.40
2023-07-19T16:10:20.217Z,46.20
2023-07-19T16:12:47.143Z,46.60
2023-07-19T16:15:14.085Z,45.60
2023-07-19T16:17:41.121Z,48.10
2023-07-19T16:20:09.264Z,43.90
2023-07-19T16:22:36.724Z,42.30
2023-07-19T16:25:04.033Z,44.40
2023-07-19T16:27:33.252Z,45.10
2023-07-19T16:30:01.047Z,43.60
2023-07-19T16:32:27.983Z,44.10
2023-07-19T16:34:54.868Z,42.10
2023-07-19T16:37:21.708Z,38.20
2023-07-19T16:39:48.467Z,40.60
2023-07-19T16:42:15.283Z,38.40
2023-07-19T16:44:42.011Z,38.00
2023-07-19T16:47:10.074Z,39.30
2023-07-19T16:49:37.993Z,41.50
2023-07-19T16:52:05.358Z,39.50
2023-07-19T16:54:32.172Z,42.70
2023-07-19T16:56:58.981Z,40.20
2023-07-19T16:59:25.922Z,38.80
2023-07-19T17:01:52.803Z,38.10
2023-07-19T17:04:19.749Z,39.60
2023-07-19T17:06:46.584Z,39.10
2023-07-19T17:09:13.429Z,35.60
2023-07-19T17:11:40.368Z,33.30
2023-07-19T17:14:07.194Z,34.60
2023-07-19T17:16:34.041Z,35.10
2023-07-19T17:19:14.564Z,36.40
2023-07-19T17:21:45.627Z,36.00
2023-07-19T17:24:12.737Z,33.80
2023-07-19T17:26:39.546Z,33.00
2023-07-19T17:29:06.816Z,33.40
2023-07-19T17:31:33.768Z,33.80
2023-07-19T17:34:01.422Z,33.40
2023-07-19T17:36:28.498Z,34.30
2023-07-19T17:38:55.379Z,34.10
2023-07-19T17:41:22.609Z,35.10
2023-07-19T17:43:49.686Z,35.90
2023-07-19T17:46:20.719Z,37.80
2023-07-19T17:48:53.083Z,38.60
2023-07-19T17:51:20.812Z,41.00
2023-07-19T17:53:49.133Z,39.80
2023-07-19T17:56:16.285Z,40.40
2023-07-19T17:58:43.057Z,41.00
2023-07-19T18:01:10.036Z,42.00
2023-07-19T18:03:39.284Z,43.40
2023-07-19T18:06:06.190Z,47.20
2023-07-19T18:08:32.939Z,55.10
2023-07-19T18:11:00.048Z,61.30
2023-07-19T18:13:26.858Z,64.00
2023-07-19T18:15:53.656Z,66.10
2023-07-19T18:18:20.613Z,65.50
2023-07-19T18:20:47.663Z,69.40
2023-07-19T18:23:14.622Z,69.60
2023-07-19T18:25:41.434Z,69.60
2023-07-19T18:28:08.743Z,69.50
2023-07-19T18:30:36.015Z,69.60
2023-07-19T18:33:02.939Z,70.30
2023-07-19T18:35:30.827Z,70.90
2023-07-19T18:37:57.717Z,71.40
2023-07-19T18:40:24.513Z,72.70
2023-07-19T18:42:51.511Z,71.40
2023-07-19T18:45:18.408Z,72.80
2023-07-19T18:47:45.176Z,73.70
2023-07-19T18:50:11.995Z,73.20
2023-07-19T18:52:38.722Z,73.00
2023-07-19T18:55:06.190Z,73.60
2023-07-19T18:57:32.968Z,74.60
2023-07-19T18:59:59.739Z,74.40
2023-07-19T19:02:34.583Z,73.60
2023-07-19T19:05:19.223Z,74.10
2023-07-19T19:07:55.798Z,72.60
2023-07-19T19:10:28.814Z,72.20
2023-07-19T19:12:55.719Z,71.00
2023-07-19T19:15:22.540Z,70.40
2023-07-19T19:17:58.897Z,70.80
2023-07-19T19:20:26.846Z,70.90
2023-07-19T19:22:54.247Z,71.50
2023-07-19T19:25:30.824Z,71.40
2023-07-19T19:28:01.403Z,71.90
2023-07-19T19:30:39.246Z,72.40
2023-07-19T19:33:23.813Z,72.10
2023-07-19T19:36:03.690Z,72.20
2023-07-19T19:38:36.563Z,72.00
2023-07-19T19:41:13.784Z,72.10
2023-07-19T19:43:40.519Z,71.70
2023-07-19T19:46:07.273Z,72.10
2023-07-19T19:48:35.127Z,71.80
2023-07-19T19:51:02.425Z,72.40
2023-07-19T19:53:31.696Z,72.20
2023-07-19T19:56:17.838Z,72.20
2023-07-19T19:58:51.800Z,72.80
2023-07-19T20:01:18.657Z,73.00
2023-07-19T20:03:46.828Z,73.20
2023-07-19T20:06:13.729Z,73.40
2023-07-19T20:08:41.942Z,73.80
2023-07-19T20:11:10.818Z,73.60
2023-07-19T20:13:37.569Z,73.90
2023-07-19T20:16:04.787Z,74.20
2023-07-19T20:21:01.616Z,74.80
2023-07-19T20:23:29.025Z,74.90
2023-07-19T20:26:00.329Z,74.70
2023-07-19T20:28:39.345Z,74.40
2023-07-19T20:31:06.727Z,74.20
2023-07-19T20:33:34.745Z,74.20
2023-07-19T20:43:31.961Z,75.20
2023-07-19T20:45:59.545Z,76.90
2023-07-19T20:48:27.288Z,79.20
2023-07-19T20:51:01.264Z,80.10
2023-07-19T20:53:28.239Z,79.70
2023-07-19T20:55:55.217Z,79.90
2023-07-19T20:58:22.275Z,80.10
2023-07-19T21:00:49.292Z,80.20
2023-07-19T21:03:16.184Z,79.10
2023-07-19T21:05:43.129Z,79.60
2023-07-19T21:08:09.885Z,80.80
2023-07-19T21:10:36.560Z,80.90
2023-07-19T21:13:03.536Z,80.30
2023-07-19T21:15:30.919Z,80.00
2023-07-19T21:17:57.772Z,80.10
2023-07-19T21:20:24.781Z,79.80
2023-07-19T21:22:52.215Z,80.00
2023-07-19T21:25:19.368Z,80.40
2023-07-19T21:27:46.428Z,80.40
2023-07-19T21:30:14.422Z,80.40
2023-07-19T21:32:42.555Z,81.00
2023-07-19T21:35:10.509Z,81.10
2023-07-19T21:37:38.945Z,80.10
2023-07-19T21:40:06.404Z,80.00
2023-07-19T21:42:34.444Z,79.90
2023-07-19T21:45:01.261Z,79.50
2023-07-19T21:47:28.120Z,79.40
2023-07-19T21:49:54.930Z,79.60
2023-07-19T21:52:21.692Z,79.60
2023-07-19T21:54:48.389Z,79.60
2023-07-19T21:57:15.172Z,79.50
2023-07-19T21:59:42.020Z,80.70
2023-07-19T22:02:09.151Z,80.00
2023-07-19T22:04:38.075Z,80.00
2023-07-19T22:07:05.152Z,80.00
2023-07-19T22:09:32.232Z,80.10
2023-07-19T22:11:59.281Z,80.60
2023-07-19T22:14:26.003Z,80.90
2023-07-19T22:16:55.571Z,81.20
2023-07-19T22:19:22.617Z,82.10
2023-07-19T22:21:49.719Z,82.50
2023-07-19T22:24:16.497Z,82.90
2023-07-19T22:26:43.260Z,82.90
2023-07-19T22:29:10.002Z,83.00
2023-07-19T22:31:36.970Z,83.40
2023-07-19T22:34:03.892Z,83.40
2023-07-19T22:36:30.695Z,83.40
2023-07-19T22:38:57.401Z,83.30
2023-07-19T22:41:24.299Z,83.20
2023-07-19T22:43:51.071Z,83.60
2023-07-19T22:46:19.811Z,84.30
2023-07-19T22:48:50.318Z,84.30
2023-07-19T22:51:17.708Z,84.20
2023-07-19T22:53:46.503Z,85.20
2023-07-19T22:56:13.361Z,85.30
2023-07-19T22:58:40.123Z,84.00
2023-07-19T23:01:07.065Z,85.80
2023-07-19T23:03:36.078Z,86.40
2023-07-19T23:06:04.438Z,86.70
2023-07-19T23:08:31.326Z,87.30
2023-07-19T23:10:58.145Z,87.80
2023-07-19T23:13:25.850Z,87.70
2023-07-19T23:15:55.347Z,87.80
2023-07-19T23:18:23.079Z,88.30
2023-07-19T23:20:51.270Z,88.40
2023-07-19T23:23:18.346Z,88.50
2023-07-19T23:25:45.102Z,88.60
2023-07-19T23:28:11.897Z,89.10
2023-07-19T23:30:42.122Z,89.30
2023-07-19T23:33:09.354Z,89.30
2023-07-19T23:35:36.401Z,89.70
2023-07-19T23:38:04.210Z,89.90
2023-07-19T23:40:30.981Z,89.90
2023-07-19T23:42:57.785Z,89.90
